sensor_id;sensor_type;location;lat;lon;timestamp;P1;durP1;ratioP1;P2;durP2;ratioP2
21309;SDS011;10814;51.722;8.772;2024-02-26T00:01:00;1.90;;;0.90;;
21309;SDS011;10814;51.722;8.772;2024-02-26T00:03:25;1.30;;;0.88;;
21309;SDS011;10814;51.722;8.772;2024-02-26T00:05:51;2.50;;;0.90;;
21309;SDS011;10814;51.722;8.772;2024-02-26T00:08:17;1.25;;;0.70;;
21309;SDS011;10814;51.722;8.772;2024-02-26T00:10:42;1.45;;;0.75;;
21309;SDS011;10814;51.722;8.772;2024-02-26T00:13:08;2.30;;;0.90;;
21309;SDS011;10814;51.722;8.772;2024-02-26T00:15:34;1.88;;;0.90;;
21309;SDS011;10814;51.722;8.772;2024-02-26T00:18:00;2.40;;;1.05;;
21309;SDS011;10814;51.722;8.772;2024-02-26T00:20:26;1.67;;;0.90;;
21309;SDS011;10814;51.722;8.772;2024-02-26T00:22:52;1.50;;;1.00;;
21309;SDS011;10814;51.722;8.772;2024-02-26T00:25:17;1.40;;;0.90;;
21309;SDS011;10814;51.722;8.772;2024-02-26T00:27:43;1.05;;;0.90;;
21309;SDS011;10814;51.722;8.772;2024-02-26T00:30:09;1.52;;;0.95;;
21309;SDS011;10814;51.722;8.772;2024-02-26T00:32:35;1.27;;;0.88;;
21309;SDS011;10814;51.722;8.772;2024-02-26T00:35:01;3.45;;;1.23;;
21309;SDS011;10814;51.722;8.772;2024-02-26T00:37:26;1.65;;;1.02;;
21309;SDS011;10814;51.722;8.772;2024-02-26T00:39:52;2.33;;;1.10;;
21309;SDS011;10814;51.722;8.772;2024-02-26T00:42:19;1.48;;;1.00;;
21309;SDS011;10814;51.722;8.772;2024-02-26T00:44:44;2.47;;;1.05;;
21309;SDS011;10814;51.722;8.772;2024-02-26T00:47:10;1.95;;;1.23;;
21309;SDS011;10814;51.722;8.772;2024-02-26T00:49:36;1.35;;;1.00;;
21309;SDS011;10814;51.722;8.772;2024-02-26T00:52:02;1.73;;;1.10;;
21309;SDS011;10814;51.722;8.772;2024-02-26T00:54:28;0.85;;;0.70;;
21309;SDS011;10814;51.722;8.772;2024-02-26T00:56:54;1.05;;;0.77;;
21309;SDS011;10814;51.722;8.772;2024-02-26T00:59:19;2.08;;;1.13;;
21309;SDS011;10814;51.722;8.772;2024-02-26T01:01:45;1.83;;;0.98;;
21309;SDS011;10814;51.722;8.772;2024-02-26T01:04:11;1.17;;;0.90;;
21309;SDS011;10814;51.722;8.772;2024-02-26T01:06:37;1.75;;;1.10;;
21309;SDS011;10814;51.722;8.772;2024-02-26T01:09:02;1.88;;;0.85;;
21309;SDS011;10814;51.722;8.772;2024-02-26T01:11:28;2.15;;;1.10;;
21309;SDS011;10814;51.722;8.772;2024-02-26T01:13:54;2.25;;;1.15;;
21309;SDS011;10814;51.722;8.772;2024-02-26T01:16:22;2.85;;;1.10;;
21309;SDS011;10814;51.722;8.772;2024-02-26T01:18:48;1.52;;;0.90;;
21309;SDS011;10814;51.722;8.772;2024-02-26T01:21:13;1.90;;;1.10;;
21309;SDS011;10814;51.722;8.772;2024-02-26T01:23:39;2.00;;;0.93;;
21309;SDS011;10814;51.722;8.772;2024-02-26T01:26:05;1.70;;;1.00;;
21309;SDS011;10814;51.722;8.772;2024-02-26T01:28:30;2.08;;;1.10;;
21309;SDS011;10814;51.722;8.772;2024-02-26T01:30:56;2.45;;;1.00;;
21309;SDS011;10814;51.722;8.772;2024-02-26T01:33:23;1.83;;;0.85;;
21309;SDS011;10814;51.722;8.772;2024-02-26T01:35:50;2.35;;;0.90;;
21309;SDS011;10814;51.722;8.772;2024-02-26T01:38:16;1.40;;;0.85;;
21309;SDS011;10814;51.722;8.772;2024-02-26T01:40:41;1.10;;;0.57;;
21309;SDS011;10814;51.722;8.772;2024-02-26T01:43:07;0.88;;;0.70;;
21309;SDS011;10814;51.722;8.772;2024-02-26T01:45:32;1.52;;;0.80;;
21309;SDS011;10814;51.722;8.772;2024-02-26T01:47:58;1.05;;;0.75;;
21309;SDS011;10814;51.722;8.772;2024-02-26T01:50:24;1.55;;;0.98;;
21309;SDS011;10814;51.722;8.772;2024-02-26T01:52:50;1.40;;;0.85;;
21309;SDS011;10814;51.722;8.772;2024-02-26T01:55:17;1.13;;;0.70;;
21309;SDS011;10814;51.722;8.772;2024-02-26T01:57:45;1.45;;;0.80;;
21309;SDS011;10814;51.722;8.772;2024-02-26T02:00:12;0.80;;;0.60;;
21309;SDS011;10814;51.722;8.772;2024-02-26T02:02:41;1.38;;;0.75;;
21309;SDS011;10814;51.722;8.772;2024-02-26T02:05:09;0.93;;;0.63;;
21309;SDS011;10814;51.722;8.772;2024-02-26T02:07:36;1.55;;;0.75;;
21309;SDS011;10814;51.722;8.772;2024-02-26T02:10:02;1.80;;;0.60;;
21309;SDS011;10814;51.722;8.772;2024-02-26T02:12:30;1.85;;;0.80;;
21309;SDS011;10814;51.722;8.772;2024-02-26T02:14:58;1.25;;;0.70;;
21309;SDS011;10814;51.722;8.772;2024-02-26T02:17:23;3.60;;;0.80;;
21309;SDS011;10814;51.722;8.772;2024-02-26T02:19:49;1.25;;;0.40;;
21309;SDS011;10814;51.722;8.772;2024-02-26T02:22:15;2.50;;;0.60;;
21309;SDS011;10814;51.722;8.772;2024-02-26T02:24:40;1.45;;;0.60;;
21309;SDS011;10814;51.722;8.772;2024-02-26T02:27:06;1.13;;;0.68;;
21309;SDS011;10814;51.722;8.772;2024-02-26T02:29:31;0.98;;;0.60;;
21309;SDS011;10814;51.722;8.772;2024-02-26T02:31:57;1.15;;;0.70;;
21309;SDS011;10814;51.722;8.772;2024-02-26T02:34:23;1.25;;;0.63;;
21309;SDS011;10814;51.722;8.772;2024-02-26T02:36:53;1.13;;;0.68;;
21309;SDS011;10814;51.722;8.772;2024-02-26T02:39:19;1.00;;;0.60;;
21309;SDS011;10814;51.722;8.772;2024-02-26T02:41:45;1.42;;;0.60;;
21309;SDS011;10814;51.722;8.772;2024-02-26T02:44:11;1.00;;;0.65;;
21309;SDS011;10814;51.722;8.772;2024-02-26T02:46:37;0.75;;;0.40;;
21309;SDS011;10814;51.722;8.772;2024-02-26T02:49:03;1.35;;;0.70;;
21309;SDS011;10814;51.722;8.772;2024-02-26T02:51:28;1.02;;;0.70;;
21309;SDS011;10814;51.722;8.772;2024-02-26T02:53:54;0.90;;;0.60;;
21309;SDS011;10814;51.722;8.772;2024-02-26T02:56:19;0.98;;;0.70;;
21309;SDS011;10814;51.722;8.772;2024-02-26T02:58:45;1.65;;;0.82;;
21309;SDS011;10814;51.722;8.772;2024-02-26T03:01:10;1.42;;;0.60;;
21309;SDS011;10814;51.722;8.772;2024-02-26T03:03:38;1.15;;;0.77;;
21309;SDS011;10814;51.722;8.772;2024-02-26T03:06:03;0.75;;;0.60;;
21309;SDS011;10814;51.722;8.772;2024-02-26T03:08:29;0.73;;;0.63;;
21309;SDS011;10814;51.722;8.772;2024-02-26T03:10:55;1.33;;;0.70;;
21309;SDS011;10814;51.722;8.772;2024-02-26T03:13:21;1.73;;;0.90;;
21309;SDS011;10814;51.722;8.772;2024-02-26T03:15:46;2.38;;;0.77;;
21309;SDS011;10814;51.722;8.772;2024-02-26T03:18:12;1.85;;;0.88;;
21309;SDS011;10814;51.722;8.772;2024-02-26T03:20:37;1.80;;;0.90;;
21309;SDS011;10814;51.722;8.772;2024-02-26T03:23:03;2.28;;;0.88;;
21309;SDS011;10814;51.722;8.772;2024-02-26T03:25:29;1.65;;;0.70;;
21309;SDS011;10814;51.722;8.772;2024-02-26T03:27:54;1.08;;;0.80;;
21309;SDS011;10814;51.722;8.772;2024-02-26T03:30:20;1.13;;;0.50;;
21309;SDS011;10814;51.722;8.772;2024-02-26T03:32:46;1.67;;;0.80;;
21309;SDS011;10814;51.722;8.772;2024-02-26T03:35:12;2.00;;;0.80;;
21309;SDS011;10814;51.722;8.772;2024-02-26T03:37:38;1.77;;;0.93;;
21309;SDS011;10814;51.722;8.772;2024-02-26T03:40:04;1.35;;;0.80;;
21309;SDS011;10814;51.722;8.772;2024-02-26T03:42:30;1.45;;;0.70;;
21309;SDS011;10814;51.722;8.772;2024-02-26T03:44:55;1.60;;;0.80;;
21309;SDS011;10814;51.722;8.772;2024-02-26T03:47:21;1.17;;;0.80;;
21309;SDS011;10814;51.722;8.772;2024-02-26T03:49:46;1.08;;;0.70;;
21309;SDS011;10814;51.722;8.772;2024-02-26T03:52:12;1.02;;;0.70;;
21309;SDS011;10814;51.722;8.772;2024-02-26T03:54:38;1.20;;;0.73;;
21309;SDS011;10814;51.722;8.772;2024-02-26T03:57:04;1.50;;;0.90;;
21309;SDS011;10814;51.722;8.772;2024-02-26T03:59:29;1.13;;;0.77;;
21309;SDS011;10814;51.722;8.772;2024-02-26T04:01:55;1.42;;;0.82;;
21309;SDS011;10814;51.722;8.772;2024-02-26T04:04:20;0.75;;;0.60;;
21309;SDS011;10814;51.722;8.772;2024-02-26T04:06:46;1.65;;;0.63;;
21309;SDS011;10814;51.722;8.772;2024-02-26T04:09:15;1.50;;;0.80;;
21309;SDS011;10814;51.722;8.772;2024-02-26T04:11:41;1.15;;;0.80;;
21309;SDS011;10814;51.722;8.772;2024-02-26T04:14:08;1.00;;;0.70;;
21309;SDS011;10814;51.722;8.772;2024-02-26T04:16:36;1.85;;;0.80;;
21309;SDS011;10814;51.722;8.772;2024-02-26T04:19:02;2.97;;;1.00;;
21309;SDS011;10814;51.722;8.772;2024-02-26T04:21:27;2.38;;;0.90;;
21309;SDS011;10814;51.722;8.772;2024-02-26T04:23:53;2.58;;;0.80;;
21309;SDS011;10814;51.722;8.772;2024-02-26T04:26:20;1.58;;;0.80;;
21309;SDS011;10814;51.722;8.772;2024-02-26T04:28:46;2.22;;;0.80;;
21309;SDS011;10814;51.722;8.772;2024-02-26T04:31:12;2.30;;;0.80;;
21309;SDS011;10814;51.722;8.772;2024-02-26T04:33:37;1.92;;;1.10;;
21309;SDS011;10814;51.722;8.772;2024-02-26T04:36:03;2.00;;;0.93;;
21309;SDS011;10814;51.722;8.772;2024-02-26T04:38:29;1.13;;;0.80;;
21309;SDS011;10814;51.722;8.772;2024-02-26T04:40:55;1.40;;;1.00;;
21309;SDS011;10814;51.722;8.772;2024-02-26T04:43:20;3.63;;;1.17;;
21309;SDS011;10814;51.722;8.772;2024-02-26T04:45:46;1.63;;;1.02;;
21309;SDS011;10814;51.722;8.772;2024-02-26T04:48:11;1.70;;;0.90;;
21309;SDS011;10814;51.722;8.772;2024-02-26T04:50:37;1.77;;;1.00;;
21309;SDS011;10814;51.722;8.772;2024-02-26T04:53:03;1.77;;;1.10;;
21309;SDS011;10814;51.722;8.772;2024-02-26T04:55:28;1.83;;;0.93;;
21309;SDS011;10814;51.722;8.772;2024-02-26T04:57:54;1.50;;;0.90;;
21309;SDS011;10814;51.722;8.772;2024-02-26T05:00:20;2.90;;;1.20;;
21309;SDS011;10814;51.722;8.772;2024-02-26T05:02:45;1.50;;;1.00;;
21309;SDS011;10814;51.722;8.772;2024-02-26T05:05:11;2.22;;;1.30;;
21309;SDS011;10814;51.722;8.772;2024-02-26T05:07:41;2.00;;;1.10;;
21309;SDS011;10814;51.722;8.772;2024-02-26T05:10:10;4.07;;;1.40;;
21309;SDS011;10814;51.722;8.772;2024-02-26T05:12:36;3.05;;;1.60;;
21309;SDS011;10814;51.722;8.772;2024-02-26T05:15:02;3.47;;;1.25;;
21309;SDS011;10814;51.722;8.772;2024-02-26T05:17:28;4.63;;;1.50;;
21309;SDS011;10814;51.722;8.772;2024-02-26T05:19:53;1.55;;;0.95;;
21309;SDS011;10814;51.722;8.772;2024-02-26T05:22:19;3.17;;;1.67;;
21309;SDS011;10814;51.722;8.772;2024-02-26T05:24:45;2.55;;;1.48;;
21309;SDS011;10814;51.722;8.772;2024-02-26T05:27:10;3.00;;;1.55;;
21309;SDS011;10814;51.722;8.772;2024-02-26T05:29:37;4.13;;;1.55;;
21309;SDS011;10814;51.722;8.772;2024-02-26T05:32:03;2.15;;;1.38;;
21309;SDS011;10814;51.722;8.772;2024-02-26T05:34:29;2.17;;;1.50;;
21309;SDS011;10814;51.722;8.772;2024-02-26T05:36:55;2.85;;;1.73;;
21309;SDS011;10814;51.722;8.772;2024-02-26T05:39:21;3.53;;;1.92;;
21309;SDS011;10814;51.722;8.772;2024-02-26T05:41:46;2.47;;;1.48;;
21309;SDS011;10814;51.722;8.772;2024-02-26T05:44:12;2.55;;;1.60;;
21309;SDS011;10814;51.722;8.772;2024-02-26T05:46:38;2.13;;;1.63;;
21309;SDS011;10814;51.722;8.772;2024-02-26T05:49:03;2.63;;;1.63;;
21309;SDS011;10814;51.722;8.772;2024-02-26T05:51:29;3.05;;;1.85;;
21309;SDS011;10814;51.722;8.772;2024-02-26T05:53:55;2.25;;;1.55;;
21309;SDS011;10814;51.722;8.772;2024-02-26T05:56:21;2.70;;;1.50;;
21309;SDS011;10814;51.722;8.772;2024-02-26T05:58:47;2.67;;;1.33;;
21309;SDS011;10814;51.722;8.772;2024-02-26T06:01:15;2.13;;;1.50;;
21309;SDS011;10814;51.722;8.772;2024-02-26T06:03:41;2.92;;;1.83;;
21309;SDS011;10814;51.722;8.772;2024-02-26T06:06:07;2.72;;;1.60;;
21309;SDS011;10814;51.722;8.772;2024-02-26T06:08:35;2.58;;;1.45;;
21309;SDS011;10814;51.722;8.772;2024-02-26T06:11:04;2.30;;;1.20;;
21309;SDS011;10814;51.722;8.772;2024-02-26T06:13:31;3.42;;;1.60;;
21309;SDS011;10814;51.722;8.772;2024-02-26T06:15:57;2.75;;;1.50;;
21309;SDS011;10814;51.722;8.772;2024-02-26T06:18:23;2.25;;;1.42;;
21309;SDS011;10814;51.722;8.772;2024-02-26T06:20:48;2.58;;;1.25;;
21309;SDS011;10814;51.722;8.772;2024-02-26T06:23:14;4.22;;;1.75;;
21309;SDS011;10814;51.722;8.772;2024-02-26T06:25:41;5.80;;;2.30;;
21309;SDS011;10814;51.722;8.772;2024-02-26T06:28:07;3.92;;;2.15;;
21309;SDS011;10814;51.722;8.772;2024-02-26T06:30:36;3.50;;;2.00;;
21309;SDS011;10814;51.722;8.772;2024-02-26T06:33:02;3.05;;;1.60;;
21309;SDS011;10814;51.722;8.772;2024-02-26T06:35:28;2.90;;;1.67;;
21309;SDS011;10814;51.722;8.772;2024-02-26T06:37:53;2.33;;;1.30;;
21309;SDS011;10814;51.722;8.772;2024-02-26T06:40:19;3.90;;;1.42;;
21309;SDS011;10814;51.722;8.772;2024-02-26T06:42:45;2.38;;;1.45;;
21309;SDS011;10814;51.722;8.772;2024-02-26T06:45:10;2.08;;;1.15;;
21309;SDS011;10814;51.722;8.772;2024-02-26T06:47:36;2.83;;;1.45;;
21309;SDS011;10814;51.722;8.772;2024-02-26T06:50:01;2.53;;;1.33;;
21309;SDS011;10814;51.722;8.772;2024-02-26T06:52:28;1.98;;;1.20;;
21309;SDS011;10814;51.722;8.772;2024-02-26T06:54:53;3.15;;;1.63;;
21309;SDS011;10814;51.722;8.772;2024-02-26T06:57:22;1.75;;;1.38;;
21309;SDS011;10814;51.722;8.772;2024-02-26T06:59:47;2.63;;;1.27;;
21309;SDS011;10814;51.722;8.772;2024-02-26T07:02:13;3.85;;;1.70;;
21309;SDS011;10814;51.722;8.772;2024-02-26T07:04:39;1.67;;;1.10;;
21309;SDS011;10814;51.722;8.772;2024-02-26T07:07:06;2.65;;;1.40;;
21309;SDS011;10814;51.722;8.772;2024-02-26T07:09:32;2.63;;;1.35;;
21309;SDS011;10814;51.722;8.772;2024-02-26T07:11:58;2.35;;;1.50;;
21309;SDS011;10814;51.722;8.772;2024-02-26T07:14:24;3.03;;;1.50;;
21309;SDS011;10814;51.722;8.772;2024-02-26T07:16:52;2.50;;;1.65;;
21309;SDS011;10814;51.722;8.772;2024-02-26T07:19:17;2.47;;;1.33;;
21309;SDS011;10814;51.722;8.772;2024-02-26T07:21:43;2.33;;;1.55;;
21309;SDS011;10814;51.722;8.772;2024-02-26T07:24:08;2.72;;;1.67;;
21309;SDS011;10814;51.722;8.772;2024-02-26T07:26:34;2.42;;;1.50;;
21309;SDS011;10814;51.722;8.772;2024-02-26T07:29:00;2.22;;;1.42;;
21309;SDS011;10814;51.722;8.772;2024-02-26T07:31:26;3.28;;;1.70;;
21309;SDS011;10814;51.722;8.772;2024-02-26T07:33:51;2.78;;;1.63;;
21309;SDS011;10814;51.722;8.772;2024-02-26T07:36:17;2.60;;;1.60;;
21309;SDS011;10814;51.722;8.772;2024-02-26T07:38:42;3.10;;;1.60;;
21309;SDS011;10814;51.722;8.772;2024-02-26T07:41:08;2.38;;;1.50;;
21309;SDS011;10814;51.722;8.772;2024-02-26T07:43:34;2.25;;;1.67;;
21309;SDS011;10814;51.722;8.772;2024-02-26T07:45:59;2.90;;;1.60;;
21309;SDS011;10814;51.722;8.772;2024-02-26T07:48:25;2.83;;;1.65;;
21309;SDS011;10814;51.722;8.772;2024-02-26T07:50:51;2.92;;;1.70;;
21309;SDS011;10814;51.722;8.772;2024-02-26T07:53:17;4.50;;;1.92;;
21309;SDS011;10814;51.722;8.772;2024-02-26T07:55:42;2.22;;;1.58;;
21309;SDS011;10814;51.722;8.772;2024-02-26T07:58:08;2.70;;;1.70;;
21309;SDS011;10814;51.722;8.772;2024-02-26T08:00:33;2.65;;;1.92;;
21309;SDS011;10814;51.722;8.772;2024-02-26T08:02:59;4.95;;;1.80;;
21309;SDS011;10814;51.722;8.772;2024-02-26T08:05:25;2.85;;;1.80;;
21309;SDS011;10814;51.722;8.772;2024-02-26T08:07:51;3.75;;;1.80;;
21309;SDS011;10814;51.722;8.772;2024-02-26T08:10:17;4.38;;;2.05;;
21309;SDS011;10814;51.722;8.772;2024-02-26T08:12:42;3.00;;;1.75;;
21309;SDS011;10814;51.722;8.772;2024-02-26T08:15:08;4.88;;;1.88;;
21309;SDS011;10814;51.722;8.772;2024-02-26T08:17:33;2.33;;;1.70;;
21309;SDS011;10814;51.722;8.772;2024-02-26T08:19:59;4.38;;;1.75;;
21309;SDS011;10814;51.722;8.772;2024-02-26T08:22:25;3.40;;;1.75;;
21309;SDS011;10814;51.722;8.772;2024-02-26T08:24:51;2.47;;;1.70;;
21309;SDS011;10814;51.722;8.772;2024-02-26T08:27:16;6.15;;;1.90;;
21309;SDS011;10814;51.722;8.772;2024-02-26T08:29:42;4.05;;;2.10;;
21309;SDS011;10814;51.722;8.772;2024-02-26T08:32:08;3.70;;;2.10;;
21309;SDS011;10814;51.722;8.772;2024-02-26T08:34:33;3.17;;;1.70;;
21309;SDS011;10814;51.722;8.772;2024-02-26T08:36:59;4.22;;;1.85;;
21309;SDS011;10814;51.722;8.772;2024-02-26T08:39:25;2.78;;;1.90;;
21309;SDS011;10814;51.722;8.772;2024-02-26T08:41:51;3.50;;;2.00;;
21309;SDS011;10814;51.722;8.772;2024-02-26T08:44:16;3.60;;;2.10;;
21309;SDS011;10814;51.722;8.772;2024-02-26T08:46:42;4.28;;;2.28;;
21309;SDS011;10814;51.722;8.772;2024-02-26T08:49:08;4.28;;;2.50;;
21309;SDS011;10814;51.722;8.772;2024-02-26T08:51:36;4.88;;;2.95;;
21309;SDS011;10814;51.722;8.772;2024-02-26T08:54:20;5.82;;;2.97;;
21309;SDS011;10814;51.722;8.772;2024-02-26T08:56:46;4.13;;;2.75;;
21309;SDS011;10814;51.722;8.772;2024-02-26T08:59:11;4.10;;;2.70;;
21309;SDS011;10814;51.722;8.772;2024-02-26T09:01:37;4.53;;;2.65;;
21309;SDS011;10814;51.722;8.772;2024-02-26T09:04:02;6.10;;;3.13;;
21309;SDS011;10814;51.722;8.772;2024-02-26T09:06:28;4.57;;;2.70;;
21309;SDS011;10814;51.722;8.772;2024-02-26T09:08:54;4.50;;;2.72;;
21309;SDS011;10814;51.722;8.772;2024-02-26T09:11:24;4.55;;;2.92;;
21309;SDS011;10814;51.722;8.772;2024-02-26T09:13:49;5.43;;;3.05;;
21309;SDS011;10814;51.722;8.772;2024-02-26T09:16:15;5.45;;;2.80;;
21309;SDS011;10814;51.722;8.772;2024-02-26T09:18:40;4.95;;;2.80;;
21309;SDS011;10814;51.722;8.772;2024-02-26T09:21:06;5.15;;;3.20;;
21309;SDS011;10814;51.722;8.772;2024-02-26T09:23:32;5.15;;;3.00;;
21309;SDS011;10814;51.722;8.772;2024-02-26T09:25:58;4.90;;;2.85;;
21309;SDS011;10814;51.722;8.772;2024-02-26T09:28:23;4.72;;;2.95;;
21309;SDS011;10814;51.722;8.772;2024-02-26T09:30:49;3.85;;;2.58;;
21309;SDS011;10814;51.722;8.772;2024-02-26T09:33:16;4.68;;;3.03;;
21309;SDS011;10814;51.722;8.772;2024-02-26T09:35:41;4.38;;;2.58;;
21309;SDS011;10814;51.722;8.772;2024-02-26T09:38:07;5.30;;;2.60;;
21309;SDS011;10814;51.722;8.772;2024-02-26T09:40:33;4.45;;;2.40;;
21309;SDS011;10814;51.722;8.772;2024-02-26T09:43:01;5.15;;;2.53;;
21309;SDS011;10814;51.722;8.772;2024-02-26T09:45:30;4.00;;;2.78;;
21309;SDS011;10814;51.722;8.772;2024-02-26T09:47:57;3.17;;;2.13;;
21309;SDS011;10814;51.722;8.772;2024-02-26T09:50:23;4.15;;;2.35;;
21309;SDS011;10814;51.722;8.772;2024-02-26T09:52:49;5.00;;;2.45;;
21309;SDS011;10814;51.722;8.772;2024-02-26T09:55:16;3.67;;;2.15;;
21309;SDS011;10814;51.722;8.772;2024-02-26T09:57:43;2.85;;;1.95;;
21309;SDS011;10814;51.722;8.772;2024-02-26T10:00:11;5.32;;;2.17;;
21309;SDS011;10814;51.722;8.772;2024-02-26T10:02:43;3.57;;;2.03;;
21309;SDS011;10814;51.722;8.772;2024-02-26T10:05:10;3.67;;;1.85;;
21309;SDS011;10814;51.722;8.772;2024-02-26T10:07:39;2.42;;;1.90;;
21309;SDS011;10814;51.722;8.772;2024-02-26T10:10:05;2.72;;;1.60;;
21309;SDS011;10814;51.722;8.772;2024-02-26T10:12:31;3.17;;;2.00;;
21309;SDS011;10814;51.722;8.772;2024-02-26T10:14:57;3.55;;;2.08;;
21309;SDS011;10814;51.722;8.772;2024-02-26T10:17:23;2.67;;;2.00;;
21309;SDS011;10814;51.722;8.772;2024-02-26T10:19:49;4.05;;;2.38;;
21309;SDS011;10814;51.722;8.772;2024-02-26T10:22:16;4.45;;;2.13;;
21309;SDS011;10814;51.722;8.772;2024-02-26T10:24:42;4.25;;;2.22;;
21309;SDS011;10814;51.722;8.772;2024-02-26T10:27:08;3.72;;;2.20;;
21309;SDS011;10814;51.722;8.772;2024-02-26T10:29:36;3.75;;;2.13;;
21309;SDS011;10814;51.722;8.772;2024-02-26T10:32:02;3.78;;;2.58;;
21309;SDS011;10814;51.722;8.772;2024-02-26T10:34:29;3.78;;;2.42;;
21309;SDS011;10814;51.722;8.772;2024-02-26T10:36:55;5.57;;;3.00;;
21309;SDS011;10814;51.722;8.772;2024-02-26T10:39:21;4.40;;;2.92;;
21309;SDS011;10814;51.722;8.772;2024-02-26T10:41:49;4.00;;;2.53;;
21309;SDS011;10814;51.722;8.772;2024-02-26T10:44:15;5.28;;;2.95;;
21309;SDS011;10814;51.722;8.772;2024-02-26T10:46:41;4.32;;;2.58;;
21309;SDS011;10814;51.722;8.772;2024-02-26T10:49:15;5.22;;;2.85;;
21309;SDS011;10814;51.722;8.772;2024-02-26T10:54:15;3.83;;;2.55;;
21309;SDS011;10814;51.722;8.772;2024-02-26T10:56:41;6.75;;;3.15;;
21309;SDS011;10814;51.722;8.772;2024-02-26T10:59:09;5.68;;;2.90;;
21309;SDS011;10814;51.722;8.772;2024-02-26T11:01:35;5.40;;;3.20;;
21309;SDS011;10814;51.722;8.772;2024-02-26T11:04:06;4.97;;;3.08;;
21309;SDS011;10814;51.722;8.772;2024-02-26T11:06:33;4.60;;;2.63;;
21309;SDS011;10814;51.722;8.772;2024-02-26T11:08:59;4.75;;;3.10;;
21309;SDS011;10814;51.722;8.772;2024-02-26T11:11:27;5.70;;;3.08;;
21309;SDS011;10814;51.722;8.772;2024-02-26T11:13:54;6.90;;;3.70;;
21309;SDS011;10814;51.722;8.772;2024-02-26T11:16:21;5.18;;;3.15;;
21309;SDS011;10814;51.722;8.772;2024-02-26T11:18:48;5.78;;;3.85;;
21309;SDS011;10814;51.722;8.772;2024-02-26T11:21:17;6.88;;;3.35;;
21309;SDS011;10814;51.722;8.772;2024-02-26T11:23:45;6.20;;;3.25;;
21309;SDS011;10814;51.722;8.772;2024-02-26T11:26:11;5.18;;;3.50;;
21309;SDS011;10814;51.722;8.772;2024-02-26T11:28:39;5.97;;;3.47;;
21309;SDS011;10814;51.722;8.772;2024-02-26T11:31:06;7.22;;;3.78;;
21309;SDS011;10814;51.722;8.772;2024-02-26T11:33:35;5.63;;;3.63;;
21309;SDS011;10814;51.722;8.772;2024-02-26T11:36:04;7.00;;;4.15;;
21309;SDS011;10814;51.722;8.772;2024-02-26T11:38:34;6.72;;;3.88;;
21309;SDS011;10814;51.722;8.772;2024-02-26T11:41:01;5.35;;;3.60;;
21309;SDS011;10814;51.722;8.772;2024-02-26T11:46:31;6.85;;;3.63;;
21309;SDS011;10814;51.722;8.772;2024-02-26T11:49:03;5.75;;;3.97;;
21309;SDS011;10814;51.722;8.772;2024-02-26T11:51:52;5.40;;;3.65;;
21309;SDS011;10814;51.722;8.772;2024-02-26T11:59:47;5.80;;;3.97;;
21309;SDS011;10814;51.722;8.772;2024-02-26T12:05:05;6.88;;;4.07;;
21309;SDS011;10814;51.722;8.772;2024-02-26T12:07:36;6.07;;;4.07;;
21309;SDS011;10814;51.722;8.772;2024-02-26T12:10:21;7.78;;;4.38;;
21309;SDS011;10814;51.722;8.772;2024-02-26T12:12:54;8.07;;;4.60;;
21309;SDS011;10814;51.722;8.772;2024-02-26T12:15:24;6.07;;;4.28;;
21309;SDS011;10814;51.722;8.772;2024-02-26T12:17:55;7.68;;;4.95;;
21309;SDS011;10814;51.722;8.772;2024-02-26T12:20:21;7.30;;;4.53;;
21309;SDS011;10814;51.722;8.772;2024-02-26T12:22:47;10.48;;;5.30;;
21309;SDS011;10814;51.722;8.772;2024-02-26T12:25:17;8.32;;;5.10;;
21309;SDS011;10814;51.722;8.772;2024-02-26T12:27:47;8.73;;;5.30;;
21309;SDS011;10814;51.722;8.772;2024-02-26T12:30:13;8.73;;;5.95;;
21309;SDS011;10814;51.722;8.772;2024-02-26T12:32:39;10.35;;;5.95;;
21309;SDS011;10814;51.722;8.772;2024-02-26T12:35:05;9.75;;;5.88;;
21309;SDS011;10814;51.722;8.772;2024-02-26T12:37:31;10.60;;;6.45;;
21309;SDS011;10814;51.722;8.772;2024-02-26T12:39:57;8.00;;;5.70;;
21309;SDS011;10814;51.722;8.772;2024-02-26T12:42:23;9.18;;;6.10;;
21309;SDS011;10814;51.722;8.772;2024-02-26T12:44:49;7.90;;;5.85;;
21309;SDS011;10814;51.722;8.772;2024-02-26T12:47:16;10.35;;;7.07;;
21309;SDS011;10814;51.722;8.772;2024-02-26T12:49:43;9.85;;;6.97;;
21309;SDS011;10814;51.722;8.772;2024-02-26T12:52:12;12.40;;;7.15;;
21309;SDS011;10814;51.722;8.772;2024-02-26T12:54:38;10.18;;;7.13;;
21309;SDS011;10814;51.722;8.772;2024-02-26T12:57:05;9.77;;;6.72;;
21309;SDS011;10814;51.722;8.772;2024-02-26T12:59:33;9.25;;;7.55;;
21309;SDS011;10814;51.722;8.772;2024-02-26T13:02:02;11.43;;;7.38;;
21309;SDS011;10814;51.722;8.772;2024-02-26T13:04:29;10.02;;;7.03;;
21309;SDS011;10814;51.722;8.772;2024-02-26T13:06:55;10.15;;;7.30;;
21309;SDS011;10814;51.722;8.772;2024-02-26T13:09:25;9.93;;;7.47;;
21309;SDS011;10814;51.722;8.772;2024-02-26T13:11:55;10.55;;;7.28;;
21309;SDS011;10814;51.722;8.772;2024-02-26T13:14:20;9.65;;;6.95;;
21309;SDS011;10814;51.722;8.772;2024-02-26T13:16:56;9.82;;;6.65;;
21309;SDS011;10814;51.722;8.772;2024-02-26T13:19:23;13.23;;;6.63;;
21309;SDS011;10814;51.722;8.772;2024-02-26T13:21:49;10.85;;;6.57;;
21309;SDS011;10814;51.722;8.772;2024-02-26T13:24:14;9.95;;;6.72;;
21309;SDS011;10814;51.722;8.772;2024-02-26T13:26:44;11.02;;;6.50;;
21309;SDS011;10814;51.722;8.772;2024-02-26T13:29:16;8.73;;;6.47;;
21309;SDS011;10814;51.722;8.772;2024-02-26T13:31:48;9.10;;;6.87;;
21309;SDS011;10814;51.722;8.772;2024-02-26T13:34:26;8.63;;;5.95;;
21309;SDS011;10814;51.722;8.772;2024-02-26T13:36:53;8.32;;;5.80;;
21309;SDS011;10814;51.722;8.772;2024-02-26T13:39:25;8.52;;;5.85;;
21309;SDS011;10814;51.722;8.772;2024-02-26T13:41:52;8.30;;;5.65;;
21309;SDS011;10814;51.722;8.772;2024-02-26T13:44:19;8.70;;;5.60;;
21309;SDS011;10814;51.722;8.772;2024-02-26T13:46:46;7.80;;;5.60;;
21309;SDS011;10814;51.722;8.772;2024-02-26T13:49:12;7.15;;;4.82;;
21309;SDS011;10814;51.722;8.772;2024-02-26T13:51:40;8.95;;;5.18;;
21309;SDS011;10814;51.722;8.772;2024-02-26T13:54:06;7.55;;;5.28;;
21309;SDS011;10814;51.722;8.772;2024-02-26T13:56:32;9.05;;;5.35;;
21309;SDS011;10814;51.722;8.772;2024-02-26T13:58:58;8.88;;;6.03;;
21309;SDS011;10814;51.722;8.772;2024-02-26T14:01:25;8.82;;;5.55;;
21309;SDS011;10814;51.722;8.772;2024-02-26T14:03:50;8.93;;;6.13;;
21309;SDS011;10814;51.722;8.772;2024-02-26T14:06:16;6.93;;;4.68;;
21309;SDS011;10814;51.722;8.772;2024-02-26T14:08:42;8.32;;;4.68;;
21309;SDS011;10814;51.722;8.772;2024-02-26T14:11:07;7.50;;;4.72;;
21309;SDS011;10814;51.722;8.772;2024-02-26T14:13:33;7.47;;;4.85;;
21309;SDS011;10814;51.722;8.772;2024-02-26T14:15:59;8.63;;;5.10;;
21309;SDS011;10814;51.722;8.772;2024-02-26T14:18:24;7.07;;;4.63;;
21309;SDS011;10814;51.722;8.772;2024-02-26T14:20:50;7.53;;;4.35;;
21309;SDS011;10814;51.722;8.772;2024-02-26T14:23:16;7.72;;;4.55;;
21309;SDS011;10814;51.722;8.772;2024-02-26T14:25:42;6.72;;;4.15;;
21309;SDS011;10814;51.722;8.772;2024-02-26T14:28:07;7.75;;;4.05;;
21309;SDS011;10814;51.722;8.772;2024-02-26T14:30:34;6.65;;;4.05;;
21309;SDS011;10814;51.722;8.772;2024-02-26T14:32:59;7.95;;;4.10;;
21309;SDS011;10814;51.722;8.772;2024-02-26T14:35:25;7.53;;;3.80;;
21309;SDS011;10814;51.722;8.772;2024-02-26T14:37:56;7.00;;;4.00;;
21309;SDS011;10814;51.722;8.772;2024-02-26T14:40:25;8.32;;;4.18;;
21309;SDS011;10814;51.722;8.772;2024-02-26T14:42:51;6.50;;;3.85;;
21309;SDS011;10814;51.722;8.772;2024-02-26T14:45:17;8.40;;;4.10;;
21309;SDS011;10814;51.722;8.772;2024-02-26T14:47:42;6.53;;;4.10;;
21309;SDS011;10814;51.722;8.772;2024-02-26T14:50:08;7.35;;;4.20;;
21309;SDS011;10814;51.722;8.772;2024-02-26T14:52:34;7.47;;;4.97;;
21309;SDS011;10814;51.722;8.772;2024-02-26T14:54:59;8.50;;;4.68;;
21309;SDS011;10814;51.722;8.772;2024-02-26T14:57:25;7.38;;;4.43;;